sensor_id;sensor_type;location;lat;lon;timestamp;pressure;altitude;pressure_sealevel;temperature;humidity
10688;BME280;5392;42.688;23.298;2023-05-09T00:00:31;57398.81;;;-144.48;100.00
10688;BME280;5392;42.688;23.298;2023-05-09T00:02:58;57394.63;;;-144.48;100.00
10688;BME280;5392;42.688;23.298;2023-05-09T00:05:25;57373.75;;;-144.48;100.00
10688;BME280;5392;42.688;23.298;2023-05-09T00:07:51;57386.28;;;-144.48;100.00
10688;BME280;5392;42.688;23.298;2023-05-09T00:10:18;57417.59;;;-144.48;100.00
10688;BME280;5392;42.688;23.298;2023-05-09T00:12:45;57382.13;;;-144.48;100.00
10688;BME280;5392;42.688;23.298;2023-05-09T00:15:12;57336.19;;;-144.48;100.00
10688;BME280;5392;42.688;23.298;2023-05-09T00:17:39;57400.91;;;-144.48;100.00
10688;BME280;5392;42.688;23.298;2023-05-09T00:20:07;57398.81;;;-144.48;100.00
10688;BME280;5392;42.688;23.298;2023-05-09T00:22:38;57338.28;;;-144.48;100.00
10688;BME280;5392;42.688;23.298;2023-05-09T00:25:09;57388.38;;;-144.48;100.00
10688;BME280;5392;42.688;23.298;2023-05-09T00:27:37;57371.69;;;-144.48;100.00
10688;BME280;5392;42.688;23.298;2023-05-09T00:30:04;57386.28;;;-144.48;100.00
10688;BME280;5392;42.688;23.298;2023-05-09T00:32:32;57365.41;;;-144.48;100.00
10688;BME280;5392;42.688;23.298;2023-05-09T00:34:59;57361.25;;;-144.48;100.00
10688;BME280;5392;42.688;23.298;2023-05-09T00:37:25;57396.72;;;-144.48;100.00
10688;BME280;5392;42.688;23.298;2023-05-09T00:39:52;57398.81;;;-144.48;100.00
10688;BME280;5392;42.688;23.298;2023-05-09T00:42:19;57386.28;;;-144.48;100.00
10688;BME280;5392;42.688;23.298;2023-05-09T00:44:45;57373.75;;;-144.48;100.00
10688;BME280;5392;42.688;23.298;2023-05-09T00:47:12;57413.44;;;-144.48;100.00
10688;BME280;5392;42.688;23.298;2023-05-09T00:49:39;57403.00;;;-144.48;100.00
10688;BME280;5392;42.688;23.298;2023-05-09T00:52:06;57377.94;;;-144.48;100.00
10688;BME280;5392;42.688;23.298;2023-05-09T00:54:33;57425.94;;;-144.48;100.00
10688;BME280;5392;42.688;23.298;2023-05-09T00:56:59;57394.63;;;-144.48;100.00
10688;BME280;5392;42.688;23.298;2023-05-09T00:59:26;57398.81;;;-144.48;100.00
10688;BME280;5392;42.688;23.298;2023-05-09T01:01:53;57388.38;;;-144.48;100.00
10688;BME280;5392;42.688;23.298;2023-05-09T01:04:19;57405.06;;;-144.48;100.00
10688;BME280;5392;42.688;23.298;2023-05-09T01:06:54;57396.72;;;-144.48;100.00
10688;BME280;5392;42.688;23.298;2023-05-09T01:10:13;57382.13;;;-144.48;100.00
10688;BME280;5392;42.688;23.298;2023-05-09T01:14:50;57377.94;;;-144.48;100.00
10688;BME280;5392;42.688;23.298;2023-05-09T01:17:43;57411.34;;;-144.48;100.00
10688;BME280;5392;42.688;23.298;2023-05-09T01:22:47;57388.38;;;-144.48;100.00
10688;BME280;5392;42.688;23.298;2023-05-09T01:30:57;57394.63;;;-144.48;100.00
10688;BME280;5392;42.688;23.298;2023-05-09T01:33:25;57375.84;;;-144.48;100.00
10688;BME280;5392;42.688;23.298;2023-05-09T01:36:03;57377.94;;;-144.48;100.00
10688;BME280;5392;42.688;23.298;2023-05-09T01:38:31;57455.16;;;-144.48;100.00
10688;BME280;5392;42.688;23.298;2023-05-09T01:40:59;57407.16;;;-144.48;100.00
10688;BME280;5392;42.688;23.298;2023-05-09T01:43:27;57380.03;;;-144.48;100.00
10688;BME280;5392;42.688;23.298;2023-05-09T01:45:56;57411.34;;;-144.48;100.00
10688;BME280;5392;42.688;23.298;2023-05-09T01:48:25;57394.63;;;-144.48;100.00
10688;BME280;5392;42.688;23.298;2023-05-09T01:50:56;57417.59;;;-144.48;100.00
10688;BME280;5392;42.688;23.298;2023-05-09T01:53:24;57350.81;;;-144.48;100.00
10688;BME280;5392;42.688;23.298;2023-05-09T01:55:53;57423.88;;;-144.48;100.00
10688;BME280;5392;42.688;23.298;2023-05-09T01:58:22;57394.63;;;-144.48;100.00
10688;BME280;5392;42.688;23.298;2023-05-09T02:00:51;57417.59;;;-144.48;100.00
10688;BME280;5392;42.688;23.298;2023-05-09T02:03:19;57400.91;;;-144.48;100.00
10688;BME280;5392;42.688;23.298;2023-05-09T02:05:47;57392.56;;;-144.48;100.00
10688;BME280;5392;42.688;23.298;2023-05-09T02:08:14;57405.06;;;-144.48;100.00
10688;BME280;5392;42.688;23.298;2023-05-09T02:10:43;57380.03;;;-144.48;100.00
10688;BME280;5392;42.688;23.298;2023-05-09T02:13:10;57413.44;;;-144.48;100.00
10688;BME280;5392;42.688;23.298;2023-05-09T02:15:37;57369.59;;;-144.48;100.00
10688;BME280;5392;42.688;23.298;2023-05-09T02:18:05;57373.75;;;-144.48;100.00
10688;BME280;5392;42.688;23.298;2023-05-09T02:20:31;57413.44;;;-144.48;100.00
10688;BME280;5392;42.688;23.298;2023-05-09T02:23:01;57413.44;;;-144.48;100.00
10688;BME280;5392;42.688;23.298;2023-05-09T02:25:28;57382.13;;;-144.48;100.00
10688;BME280;5392;42.688;23.298;2023-05-09T02:27:57;57390.47;;;-144.48;100.00
10688;BME280;5392;42.688;23.298;2023-05-09T02:30:25;57388.38;;;-144.48;100.00
10688;BME280;5392;42.688;23.298;2023-05-09T02:33:00;57388.38;;;-144.48;100.00
10688;BME280;5392;42.688;23.298;2023-05-09T02:35:28;57380.03;;;-144.48;100.00
10688;BME280;5392;42.688;23.298;2023-05-09T02:37:56;57375.84;;;-144.48;100.00
10688;BME280;5392;42.688;23.298;2023-05-09T02:40:25;57350.81;;;-144.48;100.00
10688;BME280;5392;42.688;23.298;2023-05-09T02:42:52;57390.47;;;-144.48;100.00
10688;BME280;5392;42.688;23.298;2023-05-09T02:45:19;57400.91;;;-144.48;100.00
10688;BME280;5392;42.688;23.298;2023-05-09T02:47:45;57425.94;;;-144.48;100.00
10688;BME280;5392;42.688;23.298;2023-05-09T02:50:13;57382.13;;;-144.48;100.00
10688;BME280;5392;42.688;23.298;2023-05-09T02:52:40;57417.59;;;-144.48;100.00
10688;BME280;5392;42.688;23.298;2023-05-09T02:55:07;57354.97;;;-144.48;100.00
10688;BME280;5392;42.688;23.298;2023-05-09T02:57:34;57365.41;;;-144.48;100.00
10688;BME280;5392;42.688;23.298;2023-05-09T03:00:02;57403.00;;;-144.48;100.00
10688;BME280;5392;42.688;23.298;2023-05-09T03:02:29;57369.59;;;-144.48;100.00
10688;BME280;5392;42.688;23.298;2023-05-09T03:04:56;57403.00;;;-144.48;100.00
10688;BME280;5392;42.688;23.298;2023-05-09T03:07:23;57405.06;;;-144.48;100.00
10688;BME280;5392;42.688;23.298;2023-05-09T03:09:49;57409.25;;;-144.48;100.00
10688;BME280;5392;42.688;23.298;2023-05-09T03:12:16;57373.75;;;-144.48;100.00
10688;BME280;5392;42.688;23.298;2023-05-09T03:14:42;57375.84;;;-144.48;100.00
10688;BME280;5392;42.688;23.298;2023-05-09T03:17:09;57380.03;;;-144.48;100.00
10688;BME280;5392;42.688;23.298;2023-05-09T03:19:36;57423.88;;;-144.48;100.00
10688;BME280;5392;42.688;23.298;2023-05-09T03:22:02;57403.00;;;-144.48;100.00
10688;BME280;5392;42.688;23.298;2023-05-09T03:24:29;57405.06;;;-144.48;100.00
10688;BME280;5392;42.688;23.298;2023-05-09T03:26:56;57390.47;;;-144.48;100.00
10688;BME280;5392;42.688;23.298;2023-05-09T03:29:22;57400.91;;;-144.48;100.00
10688;BME280;5392;42.688;23.298;2023-05-09T03:31:50;57361.25;;;-144.48;100.00
10688;BME280;5392;42.688;23.298;2023-05-09T03:34:17;57400.91;;;-144.48;100.00
10688;BME280;5392;42.688;23.298;2023-05-09T03:36:44;57413.44;;;-144.48;100.00
10688;BME280;5392;42.688;23.298;2023-05-09T03:39:10;57432.22;;;-144.48;100.00
10688;BME280;5392;42.688;23.298;2023-05-09T03:41:37;57421.78;;;-144.48;100.00
10688;BME280;5392;42.688;23.298;2023-05-09T03:44:04;57436.38;;;-144.48;100.00
10688;BME280;5392;42.688;23.298;2023-05-09T03:46:30;57388.38;;;-144.48;100.00
10688;BME280;5392;42.688;23.298;2023-05-09T03:48:57;57367.50;;;-144.48;100.00
10688;BME280;5392;42.688;23.298;2023-05-09T03:51:24;57367.50;;;-144.48;100.00
10688;BME280;5392;42.688;23.298;2023-05-09T03:53:51;57415.50;;;-144.48;100.00
10688;BME280;5392;42.688;23.298;2023-05-09T03:56:17;57409.25;;;-144.48;100.00
10688;BME280;5392;42.688;23.298;2023-05-09T03:58:44;57407.16;;;-144.48;100.00
10688;BME280;5392;42.688;23.298;2023-05-09T04:01:10;57382.13;;;-144.48;100.00
10688;BME280;5392;42.688;23.298;2023-05-09T04:03:37;57440.56;;;-144.48;100.00
10688;BME280;5392;42.688;23.298;2023-05-09T04:06:04;57430.13;;;-144.48;100.00
10688;BME280;5392;42.688;23.298;2023-05-09T04:08:31;57392.56;;;-144.48;100.00
10688;BME280;5392;42.688;23.298;2023-05-09T04:10:58;57430.13;;;-144.48;100.00
10688;BME280;5392;42.688;23.298;2023-05-09T04:13:25;57417.59;;;-144.48;100.00
10688;BME280;5392;42.688;23.298;2023-05-09T04:15:52;57415.50;;;-144.48;100.00
10688;BME280;5392;42.688;23.298;2023-05-09T04:18:18;57444.72;;;-144.48;100.00
10688;BME280;5392;42.688;23.298;2023-05-09T04:20:45;57396.72;;;-144.48;100.00
10688;BME280;5392;42.688;23.298;2023-05-09T04:23:12;57369.59;;;-144.48;100.00
10688;BME280;5392;42.688;23.298;2023-05-09T04:25:39;57419.69;;;-144.48;100.00
10688;BME280;5392;42.688;23.298;2023-05-09T04:28:06;57438.47;;;-144.48;100.00
10688;BME280;5392;42.688;23.298;2023-05-09T04:30:33;57398.81;;;-144.48;100.00
10688;BME280;5392;42.688;23.298;2023-05-09T04:33:00;57407.16;;;-144.48;100.00
10688;BME280;5392;42.688;23.298;2023-05-09T04:35:26;57394.63;;;-144.48;100.00
10688;BME280;5392;42.688;23.298;2023-05-09T04:37:53;57394.63;;;-144.48;100.00
10688;BME280;5392;42.688;23.298;2023-05-09T04:40:20;57421.78;;;-144.48;100.00
10688;BME280;5392;42.688;23.298;2023-05-09T04:42:47;57392.56;;;-144.48;100.00
10688;BME280;5392;42.688;23.298;2023-05-09T04:45:13;57421.78;;;-144.48;100.00
10688;BME280;5392;42.688;23.298;2023-05-09T04:47:41;57415.50;;;-144.48;100.00
10688;BME280;5392;42.688;23.298;2023-05-09T04:50:08;57403.00;;;-144.48;100.00
10688;BME280;5392;42.688;23.298;2023-05-09T04:52:35;57419.69;;;-144.48;100.00
10688;BME280;5392;42.688;23.298;2023-05-09T04:55:01;57419.69;;;-144.48;100.00
10688;BME280;5392;42.688;23.298;2023-05-09T04:57:28;57438.47;;;-144.48;100.00
10688;BME280;5392;42.688;23.298;2023-05-09T04:59:55;57428.03;;;-144.48;100.00
10688;BME280;5392;42.688;23.298;2023-05-09T05:02:22;57413.44;;;-144.48;100.00
10688;BME280;5392;42.688;23.298;2023-05-09T05:04:50;57409.25;;;-144.48;100.00
10688;BME280;5392;42.688;23.298;2023-05-09T05:07:25;57396.72;;;-144.48;100.00
10688;BME280;5392;42.688;23.298;2023-05-09T05:09:52;57375.84;;;-144.48;100.00
10688;BME280;5392;42.688;23.298;2023-05-09T05:12:19;57382.13;;;-144.48;100.00
10688;BME280;5392;42.688;23.298;2023-05-09T05:14:46;57403.00;;;-144.48;100.00
10688;BME280;5392;42.688;23.298;2023-05-09T05:17:12;57413.44;;;-144.48;100.00
10688;BME280;5392;42.688;23.298;2023-05-09T05:19:39;57411.34;;;-144.48;100.00
10688;BME280;5392;42.688;23.298;2023-05-09T05:22:05;57396.72;;;-144.48;100.00
10688;BME280;5392;42.688;23.298;2023-05-09T05:24:32;57403.00;;;-144.48;100.00
10688;BME280;5392;42.688;23.298;2023-05-09T05:26:59;57388.38;;;-144.48;100.00
10688;BME280;5392;42.688;23.298;2023-05-09T05:29:26;57369.59;;;-144.48;100.00
10688;BME280;5392;42.688;23.298;2023-05-09T05:31:52;57398.81;;;-144.48;100.00
10688;BME280;5392;42.688;23.298;2023-05-09T05:34:19;57369.59;;;-144.48;100.00
10688;BME280;5392;42.688;23.298;2023-05-09T05:36:47;57413.44;;;-144.48;100.00
10688;BME280;5392;42.688;23.298;2023-05-09T05:39:15;57398.81;;;-144.48;100.00
10688;BME280;5392;42.688;23.298;2023-05-09T05:41:42;57409.25;;;-144.48;100.00
10688;BME280;5392;42.688;23.298;2023-05-09T05:44:08;57373.75;;;-144.48;100.00
10688;BME280;5392;42.688;23.298;2023-05-09T05:46:35;57430.13;;;-144.48;100.00
10688;BME280;5392;42.688;23.298;2023-05-09T05:49:01;57382.13;;;-144.48;100.00
10688;BME280;5392;42.688;23.298;2023-05-09T05:51:28;57423.88;;;-144.48;100.00
10688;BME280;5392;42.688;23.298;2023-05-09T05:53:55;57384.19;;;-144.48;100.00
10688;BME280;5392;42.688;23.298;2023-05-09T05:56:21;57405.06;;;-144.48;100.00
10688;BME280;5392;42.688;23.298;2023-05-09T05:58:48;57371.69;;;-144.48;99.82
10688;BME280;5392;42.688;23.298;2023-05-09T06:01:14;57409.25;;;-144.48;96.75
10688;BME280;5392;42.688;23.298;2023-05-09T06:03:41;57390.47;;;-144.48;97.04
10688;BME280;5392;42.688;23.298;2023-05-09T06:06:09;57388.38;;;-144.48;97.31
10688;BME280;5392;42.688;23.298;2023-05-09T06:08:36;57403.00;;;-144.48;95.69
10688;BME280;5392;42.688;23.298;2023-05-09T06:11:02;57367.50;;;-144.48;93.07
10688;BME280;5392;42.688;23.298;2023-05-09T06:13:31;57357.06;;;-144.48;92.03
10688;BME280;5392;42.688;23.298;2023-05-09T06:15:57;57386.28;;;-144.48;92.42
10688;BME280;5392;42.688;23.298;2023-05-09T06:18:40;57342.47;;;-144.48;91.22
10688;BME280;5392;42.688;23.298;2023-05-09T06:21:07;57394.63;;;-144.48;86.64
10688;BME280;5392;42.688;23.298;2023-05-09T06:23:34;57388.38;;;-144.48;86.02
10688;BME280;5392;42.688;23.298;2023-05-09T06:26:05;57405.06;;;-144.48;85.68
10688;BME280;5392;42.688;23.298;2023-05-09T06:28:32;57373.75;;;-144.48;88.64
10688;BME280;5392;42.688;23.298;2023-05-09T06:30:59;57400.91;;;-144.48;92.41
10688;BME280;5392;42.688;23.298;2023-05-09T06:33:27;57400.91;;;-144.48;91.77
10688;BME280;5392;42.688;23.298;2023-05-09T06:35:53;57375.84;;;-144.48;95.58
10688;BME280;5392;42.688;23.298;2023-05-09T06:38:20;57382.13;;;-144.48;91.25
10688;BME280;5392;42.688;23.298;2023-05-09T06:40:47;57400.91;;;-144.48;91.55
10688;BME280;5392;42.688;23.298;2023-05-09T06:43:13;57403.00;;;-144.48;94.41
10688;BME280;5392;42.688;23.298;2023-05-09T06:45:40;57407.16;;;-144.48;94.42
10688;BME280;5392;42.688;23.298;2023-05-09T06:48:07;57417.59;;;-144.48;95.08
10688;BME280;5392;42.688;23.298;2023-05-09T06:50:34;57415.50;;;-144.48;94.18
10688;BME280;5392;42.688;23.298;2023-05-09T06:53:00;57380.03;;;-144.48;93.18
10688;BME280;5392;42.688;23.298;2023-05-09T06:55:27;57363.31;;;-144.48;94.70
10688;BME280;5392;42.688;23.298;2023-05-09T06:57:54;57394.63;;;-144.48;93.34
10688;BME280;5392;42.688;23.298;2023-05-09T07:00:21;57425.94;;;-144.48;93.48
10688;BME280;5392;42.688;23.298;2023-05-09T07:02:47;57405.06;;;-144.48;94.10
10688;BME280;5392;42.688;23.298;2023-05-09T07:05:14;57373.75;;;-144.48;96.52
10688;BME280;5392;42.688;23.298;2023-05-09T07:07:42;57392.56;;;-144.48;95.58
10688;BME280;5392;42.688;23.298;2023-05-09T07:10:08;57442.66;;;-144.48;96.33
10688;BME280;5392;42.688;23.298;2023-05-09T07:12:38;57346.63;;;-144.48;94.41
10688;BME280;5392;42.688;23.298;2023-05-09T07:15:05;57380.03;;;-144.48;93.93
10688;BME280;5392;42.688;23.298;2023-05-09T07:17:32;57373.75;;;-144.48;95.78
10688;BME280;5392;42.688;23.298;2023-05-09T07:19:58;57386.28;;;-144.48;94.96
10688;BME280;5392;42.688;23.298;2023-05-09T07:22:25;57392.56;;;-144.48;94.30
10688;BME280;5392;42.688;23.298;2023-05-09T07:24:54;57403.00;;;-144.48;95.49
10688;BME280;5392;42.688;23.298;2023-05-09T07:27:21;57413.44;;;-144.48;95.32
10688;BME280;5392;42.688;23.298;2023-05-09T07:29:48;57380.03;;;-144.48;94.79
10688;BME280;5392;42.688;23.298;2023-05-09T07:32:18;57400.91;;;-144.48;94.68
10688;BME280;5392;42.688;23.298;2023-05-09T07:34:44;57392.56;;;-144.48;92.72
10688;BME280;5392;42.688;23.298;2023-05-09T07:37:11;57403.00;;;-144.48;92.25
10688;BME280;5392;42.688;23.298;2023-05-09T07:39:40;57405.06;;;-144.48;92.97
10688;BME280;5392;42.688;23.298;2023-05-09T07:42:07;57407.16;;;-144.48;92.78
10688;BME280;5392;42.688;23.298;2023-05-09T07:44:34;57388.38;;;-144.48;91.08
10688;BME280;5392;42.688;23.298;2023-05-09T07:47:00;57365.41;;;-144.48;89.58
10688;BME280;5392;42.688;23.298;2023-05-09T07:49:27;57375.84;;;-144.48;90.13
10688;BME280;5392;42.688;23.298;2023-05-09T07:51:54;57382.13;;;-144.48;89.30
10688;BME280;5392;42.688;23.298;2023-05-09T07:54:21;57394.63;;;-144.48;89.96
10688;BME280;5392;42.688;23.298;2023-05-09T07:56:48;57403.00;;;-144.48;88.56
10688;BME280;5392;42.688;23.298;2023-05-09T07:59:14;57405.06;;;-144.48;89.63
10688;BME280;5392;42.688;23.298;2023-05-09T08:01:42;57425.94;;;-144.48;92.19
10688;BME280;5392;42.688;23.298;2023-05-09T08:04:09;57365.41;;;-144.48;93.00
10688;BME280;5392;42.688;23.298;2023-05-09T08:06:36;57392.56;;;-144.48;93.28
10688;BME280;5392;42.688;23.298;2023-05-09T08:09:03;57430.13;;;-144.48;89.54
10688;BME280;5392;42.688;23.298;2023-05-09T08:11:34;57430.13;;;-144.48;89.71
10688;BME280;5392;42.688;23.298;2023-05-09T08:14:02;57392.56;;;-144.48;90.96
10688;BME280;5392;42.688;23.298;2023-05-09T08:16:28;57388.38;;;-144.48;90.74
10688;BME280;5392;42.688;23.298;2023-05-09T08:18:55;57407.16;;;-144.48;88.19
10688;BME280;5392;42.688;23.298;2023-05-09T08:21:22;57411.34;;;-144.48;88.22
10688;BME280;5392;42.688;23.298;2023-05-09T08:23:49;57390.47;;;-144.48;89.87
10688;BME280;5392;42.688;23.298;2023-05-09T08:26:15;57405.06;;;-144.48;88.48
10688;BME280;5392;42.688;23.298;2023-05-09T08:28:42;57417.59;;;-144.48;87.29
10688;BME280;5392;42.688;23.298;2023-05-09T08:31:09;57367.50;;;-144.48;89.86
10688;BME280;5392;42.688;23.298;2023-05-09T08:33:36;57350.81;;;-144.48;86.16
10688;BME280;5392;42.688;23.298;2023-05-09T08:36:05;57363.31;;;-144.48;83.74
10688;BME280;5392;42.688;23.298;2023-05-09T08:38:32;57394.63;;;-144.48;82.24
10688;BME280;5392;42.688;23.298;2023-05-09T08:41:01;57409.25;;;-144.48;86.14
10688;BME280;5392;42.688;23.298;2023-05-09T08:43:29;57405.06;;;-144.48;88.43
10688;BME280;5392;42.688;23.298;2023-05-09T08:45:58;57380.03;;;-144.48;85.46
10688;BME280;5392;42.688;23.298;2023-05-09T08:48:27;57357.06;;;-144.48;86.93
10688;BME280;5392;42.688;23.298;2023-05-09T08:50:54;57388.38;;;-144.48;89.33
10688;BME280;5392;42.688;23.298;2023-05-09T08:53:21;57421.78;;;-144.48;89.37
10688;BME280;5392;42.688;23.298;2023-05-09T08:55:51;57396.72;;;-144.48;91.64
10688;BME280;5392;42.688;23.298;2023-05-09T08:58:19;57384.19;;;-144.48;93.72
10688;BME280;5392;42.688;23.298;2023-05-09T09:00:48;57411.34;;;-144.48;94.02
10688;BME280;5392;42.688;23.298;2023-05-09T09:03:16;57382.13;;;-144.48;93.71
10688;BME280;5392;42.688;23.298;2023-05-09T09:05:43;57405.06;;;-144.48;93.44
10688;BME280;5392;42.688;23.298;2023-05-09T09:08:12;57413.44;;;-144.48;94.77
10688;BME280;5392;42.688;23.298;2023-05-09T09:10:41;57357.06;;;-144.48;93.69
10688;BME280;5392;42.688;23.298;2023-05-09T09:13:13;57377.94;;;-144.48;94.69
10688;BME280;5392;42.688;23.298;2023-05-09T09:15:42;57375.84;;;-144.48;95.28
10688;BME280;5392;42.688;23.298;2023-05-09T09:18:11;57413.44;;;-144.48;94.95
10688;BME280;5392;42.688;23.298;2023-05-09T09:20:47;57409.25;;;-144.48;95.21
10688;BME280;5392;42.688;23.298;2023-05-09T09:23:19;57407.16;;;-144.48;93.76
10688;BME280;5392;42.688;23.298;2023-05-09T09:25:46;57386.28;;;-144.48;93.47
10688;BME280;5392;42.688;23.298;2023-05-09T09:28:14;57411.34;;;-144.48;93.66
10688;BME280;5392;42.688;23.298;2023-05-09T09:30:46;57409.25;;;-144.48;93.25
10688;BME280;5392;42.688;23.298;2023-05-09T09:33:23;57436.38;;;-144.48;93.10
10688;BME280;5392;42.688;23.298;2023-05-09T09:35:51;57396.72;;;-144.48;93.84
10688;BME280;5392;42.688;23.298;2023-05-09T09:38:23;57419.69;;;-144.48;93.73
10688;BME280;5392;42.688;23.298;2023-05-09T09:40:53;57430.13;;;-144.48;92.22
10688;BME280;5392;42.688;23.298;2023-05-09T09:43:28;57405.06;;;-144.48;92.87
10688;BME280;5392;42.688;23.298;2023-05-09T09:45:55;57444.72;;;-144.48;92.54
10688;BME280;5392;42.688;23.298;2023-05-09T09:48:24;57430.13;;;-144.48;91.70
10688;BME280;5392;42.688;23.298;2023-05-09T09:50:55;57455.16;;;-144.48;93.43
10688;BME280;5392;42.688;23.298;2023-05-09T09:53:27;57407.16;;;-144.48;94.10
10688;BME280;5392;42.688;23.298;2023-05-09T09:55:57;57380.03;;;-144.48;94.64
10688;BME280;5392;42.688;23.298;2023-05-09T09:58:24;57382.13;;;-144.48;94.18
10688;BME280;5392;42.688;23.298;2023-05-09T10:01:07;57446.81;;;-144.48;94.43
10688;BME280;5392;42.688;23.298;2023-05-09T10:03:36;57405.06;;;-144.48;94.32
10688;BME280;5392;42.688;23.298;2023-05-09T10:06:04;57386.28;;;-144.48;92.57
10688;BME280;5392;42.688;23.298;2023-05-09T10:08:30;57394.63;;;-144.48;92.48
10688;BME280;5392;42.688;23.298;2023-05-09T10:10:58;57413.44;;;-144.48;91.49
10688;BME280;5392;42.688;23.298;2023-05-09T10:13:25;57438.47;;;-144.48;90.93
10688;BME280;5392;42.688;23.298;2023-05-09T10:15:54;57409.25;;;-144.48;89.83
10688;BME280;5392;42.688;23.298;2023-05-09T10:18:27;57423.88;;;-144.48;89.91
10688;BME280;5392;42.688;23.298;2023-05-09T10:20:55;57396.72;;;-144.48;90.19
10688;BME280;5392;42.688;23.298;2023-05-09T10:23:23;57371.69;;;-144.48;89.64
10688;BME280;5392;42.688;23.298;2023-05-09T10:26:01;57388.38;;;-144.48;92.01
10688;BME280;5392;42.688;23.298;2023-05-09T10:28:30;57398.81;;;-144.48;93.77
10688;BME280;5392;42.688;23.298;2023-05-09T10:31:13;57392.56;;;-144.48;94.42
10688;BME280;5392;42.688;23.298;2023-05-09T10:33:49;57405.06;;;-144.48;93.47
10688;BME280;5392;42.688;23.298;2023-05-09T10:36:18;57403.00;;;-144.48;93.74
10688;BME280;5392;42.688;23.298;2023-05-09T10:38:49;57350.81;;;-144.48;91.95
10688;BME280;5392;42.688;23.298;2023-05-09T10:41:16;57396.72;;;-144.48;92.59
10688;BME280;5392;42.688;23.298;2023-05-09T10:43:44;57390.47;;;-144.48;94.30
10688;BME280;5392;42.688;23.298;2023-05-09T10:46:11;57396.72;;;-144.48;94.31
10688;BME280;5392;42.688;23.298;2023-05-09T10:48:39;57407.16;;;-144.48;90.60
10688;BME280;5392;42.688;23.298;2023-05-09T10:51:07;57386.28;;;-144.48;89.85
10688;BME280;5392;42.688;23.298;2023-05-09T10:53:45;57409.25;;;-144.48;89.75
10688;BME280;5392;42.688;23.298;2023-05-09T10:58:49;57375.84;;;-144.48;89.35
10688;BME280;5392;42.688;23.298;2023-05-09T11:01:30;57421.78;;;-144.48;89.64
10688;BME280;5392;42.688;23.298;2023-05-09T11:03:58;57394.63;;;-144.48;88.59
10688;BME280;5392;42.688;23.298;2023-05-09T11:06:52;57400.91;;;-144.48;87.84
10688;BME280;5392;42.688;23.298;2023-05-09T11:09:29;57396.72;;;-144.48;87.67
10688;BME280;5392;42.688;23.298;2023-05-09T11:14:47;57396.72;;;-144.48;85.94
10688;BME280;5392;42.688;23.298;2023-05-09T11:22:23;57455.16;;;-144.48;88.80
10688;BME280;5392;42.688;23.298;2023-05-09T11:25:07;57388.38;;;-144.48;91.21
10688;BME280;5392;42.688;23.298;2023-05-09T11:27:45;57442.66;;;-144.48;90.29
10688;BME280;5392;42.688;23.298;2023-05-09T11:30:16;57417.59;;;-144.48;90.59
10688;BME280;5392;42.688;23.298;2023-05-09T11:32:50;57398.81;;;-144.48;89.19
10688;BME280;5392;42.688;23.298;2023-05-09T11:35:19;57415.50;;;-144.48;90.16
10688;BME280;5392;42.688;23.298;2023-05-09T11:37:51;57375.84;;;-144.48;89.00
10688;BME280;5392;42.688;23.298;2023-05-09T11:40:21;57415.50;;;-144.48;89.83
10688;BME280;5392;42.688;23.298;2023-05-09T11:42:50;57436.38;;;-144.48;90.76
10688;BME280;5392;42.688;23.298;2023-05-09T11:45:27;57419.69;;;-144.48;91.38
10688;BME280;5392;42.688;23.298;2023-05-09T11:47:54;57398.81;;;-144.48;91.47
10688;BME280;5392;42.688;23.298;2023-05-09T11:50:22;57400.91;;;-144.48;93.39
10688;BME280;5392;42.688;23.298;2023-05-09T11:52:49;57396.72;;;-144.48;93.28
10688;BME280;5392;42.688;23.298;2023-05-09T11:55:18;57455.16;;;-144.48;92.48
10688;BME280;5392;42.688;23.298;2023-05-09T11:57:55;57425.94;;;-144.48;92.97
10688;BME280;5392;42.688;23.298;2023-05-09T12:00:23;57417.59;;;-144.48;93.44
10688;BME280;5392;42.688;23.298;2023-05-09T12:02:51;57384.19;;;-144.48;91.81
10688;BME280;5392;42.688;23.298;2023-05-09T12:05:20;57417.59;;;-144.48;90.83
10688;BME280;5392;42.688;23.298;2023-05-09T12:07:47;57384.19;;;-144.48;91.90
10688;BME280;5392;42.688;23.298;2023-05-09T12:10:19;57400.91;;;-144.48;91.49
10688;BME280;5392;42.688;23.298;2023-05-09T12:12:48;57423.88;;;-144.48;91.78
10688;BME280;5392;42.688;23.298;2023-05-09T12:15:15;57440.56;;;-144.48;90.75
10688;BME280;5392;42.688;23.298;2023-05-09T12:17:44;57425.94;;;-144.48;92.51
10688;BME280;5392;42.688;23.298;2023-05-09T12:20:13;57417.59;;;-144.48;94.68
10688;BME280;5392;42.688;23.298;2023-05-09T12:22:43;57396.72;;;-144.48;93.76
10688;BME280;5392;42.688;23.298;2023-05-09T12:25:10;57438.47;;;-144.48;93.26
10688;BME280;5392;42.688;23.298;2023-05-09T12:27:41;57394.63;;;-144.48;93.21
10688;BME280;5392;42.688;23.298;2023-05-09T12:30:08;57417.59;;;-144.48;94.24
10688;BME280;5392;42.688;23.298;2023-05-09T12:32:36;57451.00;;;-144.48;95.87
10688;BME280;5392;42.688;23.298;2023-05-09T12:35:06;57386.28;;;-144.48;94.98
10688;BME280;5392;42.688;23.298;2023-05-09T12:37:34;57440.56;;;-144.48;96.35
10688;BME280;5392;42.688;23.298;2023-05-09T12:40:01;57382.13;;;-144.48;98.22
10688;BME280;5392;42.688;23.298;2023-05-09T12:42:34;57417.59;;;-144.48;98.09
10688;BME280;5392;42.688;23.298;2023-05-09T12:45:02;57423.88;;;-144.48;98.71
10688;BME280;5392;42.688;23.298;2023-05-09T12:47:29;57461.44;;;-144.48;98.04
10688;BME280;5392;42.688;23.298;2023-05-09T12:49:57;57448.91;;;-144.48;99.49
10688;BME280;5392;42.688;23.298;2023-05-09T12:52:24;57444.72;;;-144.48;98.49
10688;BME280;5392;42.688;23.298;2023-05-09T12:54:52;57442.66;;;-144.48;100.00
10688;BME280;5392;42.688;23.298;2023-05-09T12:57:23;57438.47;;;-144.48;100.00
10688;BME280;5392;42.688;23.298;2023-05-09T12:59:57;57405.06;;;-144.48;100.00
10688;BME280;5392;42.688;23.298;2023-05-09T13:02:25;57392.56;;;-144.48;100.00